Flight Track Log - Related Links

Times and Time Zones

All times are in EDT time to prevent confusion due to time zone crossing. See the BAW2256 flight status page for this flight to view local times or setup timezone preferences in your user account.

Time Position Orientation Groundspeed Altitude Reporting Facility
EDT Latitude Longitude Course Direction KTS MPH feet Rate Location/Type
Sat 05:43:17 PM 17.2560 -62.6320 99° East 285 328 5,500  Level FlightAware ADS-B
Sat 05:43:47 PM 17.2500 -62.5930 99° East 291 335 6,700 2,400 Climbing FlightAware ADS-B
Sat 05:43:52 PM 17.2500 -62.5870 90° East 294 338 6,900 400 Climbing FlightAware ADS-B
Sat 05:44:17 PM 17.2450 -62.5560 100° East 294 338 6,900 16 Level FlightAware ADS-B
Sat 05:47:00 PM 17.2282 -62.4359 98° East  Level Estimated
Sat 05:48:00 PM 17.2219 -62.3917 98° East  Level Estimated
Sat 05:49:00 PM 17.2157 -62.3475 98° East  Level Estimated
Sat 05:50:00 PM 17.2095 -62.3032 98° East  Level Estimated
Sat 05:50:17 PM 17.1650 -62.0470 98° East 280 322 7,000  Level FlightAware ADS-B
Sat 05:52:00 PM 17.1566 -61.9708 97° East  Level Estimated
Sat 05:53:00 PM 17.1516 -61.9264 97° East  Level Estimated
Sat 05:54:00 PM 17.1467 -61.8821 97° East  Level Estimated
Sat 05:55:00 PM 17.1418 -61.8377 97° East  Level Estimated
Sat 05:56:00 PM 17.1368 -61.7933 97° East  Level Estimated
Sat 05:57:00 PM 17.1367 -61.7927 96° East  Level Estimated
Sat 05:58:00 PM 17.1367 -61.7927 109° East  Level Estimated
Sat 05:59:00 PM 17.1367 -61.7927 109° East  Level Estimated
Sat 06:00:00 PM 17.1367 -61.7927 109° East  Level Estimated
Sat 06:01:00 PM 17.1367 -61.7927 109° East  Level Estimated
Sat 06:02:00 PM 17.1367 -61.7927 109° East  Level Estimated
Sat 06:03:00 PM 17.1367 -61.7927 109° East  Level Estimated
Sat 06:04:00 PM 17.1367 -61.7927 109° East  Level Estimated
Sat 06:05:00 PM 17.1367 -61.7927 109° East  Level Estimated
Sat 06:06:00 PM 17.1367 -61.7927 109° East  Level Estimated
Sat 06:07:00 PM 17.1367 -61.7927 109° East  Level Estimated
Sat 06:08:00 PM 17.1367 -61.7927 109° East  Level Estimated
Sat 06:09:00 PM 17.1367 -61.7927 109° East  Level Estimated
Sat 06:10:00 PM 17.1367 -61.7927 109° East  Level Estimated
Sat 06:11:00 PM 17.1367 -61.7927 109° East  Level Estimated
Sat 06:12:00 PM 17.1367 -61.7927 109° East  Level Estimated

Login

Don't have an account? Register now (free) for customized features, flight alerts, and more!